sensor_id;sensor_type;location;lat;lon;timestamp;P1;durP1;ratioP1;P2;durP2;ratioP2
49384;SDS011;36795;45.028;38.968;2022-11-20T00:00:31;35.67;;;20.23;;
49384;SDS011;36795;45.028;38.968;2022-11-20T00:03:17;40.40;;;22.60;;
49384;SDS011;36795;45.028;38.968;2022-11-20T00:06:04;36.30;;;20.50;;
49384;SDS011;36795;45.028;38.968;2022-11-20T00:08:56;43.25;;;22.62;;
49384;SDS011;36795;45.028;38.968;2022-11-20T00:11:44;38.60;;;20.75;;
49384;SDS011;36795;45.028;38.968;2022-11-20T00:14:30;38.42;;;21.92;;
49384;SDS011;36795;45.028;38.968;2022-11-20T00:17:16;41.40;;;20.37;;
49384;SDS011;36795;45.028;38.968;2022-11-20T00:20:03;40.53;;;19.77;;
49384;SDS011;36795;45.028;38.968;2022-11-20T00:22:49;40.58;;;20.42;;
49384;SDS011;36795;45.028;38.968;2022-11-20T00:25:36;36.72;;;20.33;;
49384;SDS011;36795;45.028;38.968;2022-11-20T00:28:21;37.58;;;20.50;;
49384;SDS011;36795;45.028;38.968;2022-11-20T00:31:12;34.40;;;20.45;;
49384;SDS011;36795;45.028;38.968;2022-11-20T00:33:59;41.92;;;20.75;;
49384;SDS011;36795;45.028;38.968;2022-11-20T00:36:45;40.28;;;20.98;;
49384;SDS011;36795;45.028;38.968;2022-11-20T00:39:31;36.85;;;18.83;;
49384;SDS011;36795;45.028;38.968;2022-11-20T00:42:17;35.42;;;20.27;;
49384;SDS011;36795;45.028;38.968;2022-11-20T00:45:04;34.55;;;19.08;;
49384;SDS011;36795;45.028;38.968;2022-11-20T00:47:50;38.67;;;19.60;;
49384;SDS011;36795;45.028;38.968;2022-11-20T00:50:36;36.13;;;20.35;;
49384;SDS011;36795;45.028;38.968;2022-11-20T00:53:22;40.50;;;19.62;;
49384;SDS011;36795;45.028;38.968;2022-11-20T00:56:10;36.00;;;18.90;;
49384;SDS011;36795;45.028;38.968;2022-11-20T00:58:59;39.17;;;20.30;;
49384;SDS011;36795;45.028;38.968;2022-11-20T01:01:45;40.08;;;20.08;;
49384;SDS011;36795;45.028;38.968;2022-11-20T01:04:32;38.28;;;19.35;;
49384;SDS011;36795;45.028;38.968;2022-11-20T01:07:17;44.75;;;19.90;;
49384;SDS011;36795;45.028;38.968;2022-11-20T01:10:04;38.42;;;19.25;;
49384;SDS011;36795;45.028;38.968;2022-11-20T01:12:50;36.92;;;19.15;;
49384;SDS011;36795;45.028;38.968;2022-11-20T01:16:01;37.35;;;19.55;;
49384;SDS011;36795;45.028;38.968;2022-11-20T01:18:52;38.45;;;20.02;;
49384;SDS011;36795;45.028;38.968;2022-11-20T01:21:41;37.30;;;19.65;;
49384;SDS011;36795;45.028;38.968;2022-11-20T01:24:28;36.92;;;19.10;;
49384;SDS011;36795;45.028;38.968;2022-11-20T01:27:14;38.00;;;18.80;;
49384;SDS011;36795;45.028;38.968;2022-11-20T01:30:01;36.00;;;18.10;;
49384;SDS011;36795;45.028;38.968;2022-11-20T01:32:47;37.75;;;18.90;;
49384;SDS011;36795;45.028;38.968;2022-11-20T01:35:33;34.17;;;17.98;;
49384;SDS011;36795;45.028;38.968;2022-11-20T01:38:20;37.55;;;18.42;;
49384;SDS011;36795;45.028;38.968;2022-11-20T01:41:07;34.05;;;18.33;;
49384;SDS011;36795;45.028;38.968;2022-11-20T01:43:53;40.63;;;18.52;;
49384;SDS011;36795;45.028;38.968;2022-11-20T01:46:39;33.75;;;16.98;;
49384;SDS011;36795;45.028;38.968;2022-11-20T01:49:39;37.15;;;18.67;;
49384;SDS011;36795;45.028;38.968;2022-11-20T01:52:39;32.85;;;16.75;;
49384;SDS011;36795;45.028;38.968;2022-11-20T01:55:34;34.17;;;17.87;;
49384;SDS011;36795;45.028;38.968;2022-11-20T01:58:26;34.63;;;17.87;;
49384;SDS011;36795;45.028;38.968;2022-11-20T02:01:19;36.63;;;17.75;;
49384;SDS011;36795;45.028;38.968;2022-11-20T02:04:07;37.88;;;18.60;;
49384;SDS011;36795;45.028;38.968;2022-11-20T02:06:59;32.92;;;17.92;;
49384;SDS011;36795;45.028;38.968;2022-11-20T02:09:47;35.05;;;18.05;;
49384;SDS011;36795;45.028;38.968;2022-11-20T02:12:32;37.50;;;19.80;;
49384;SDS011;36795;45.028;38.968;2022-11-20T02:18:23;36.08;;;17.90;;
49384;SDS011;36795;45.028;38.968;2022-11-20T02:24:14;35.40;;;18.02;;
49384;SDS011;36795;45.028;38.968;2022-11-20T02:27:10;36.78;;;16.67;;
49384;SDS011;36795;45.028;38.968;2022-11-20T02:30:03;35.75;;;17.42;;
49384;SDS011;36795;45.028;38.968;2022-11-20T02:32:52;32.50;;;16.37;;
49384;SDS011;36795;45.028;38.968;2022-11-20T02:35:39;33.72;;;17.10;;
49384;SDS011;36795;45.028;38.968;2022-11-20T02:38:30;35.45;;;17.48;;
49384;SDS011;36795;45.028;38.968;2022-11-20T02:41:16;34.92;;;18.15;;
49384;SDS011;36795;45.028;38.968;2022-11-20T02:44:03;38.40;;;19.02;;
49384;SDS011;36795;45.028;38.968;2022-11-20T02:46:49;34.25;;;16.95;;
49384;SDS011;36795;45.028;38.968;2022-11-20T02:49:39;35.35;;;16.83;;
49384;SDS011;36795;45.028;38.968;2022-11-20T02:52:25;35.40;;;17.52;;
49384;SDS011;36795;45.028;38.968;2022-11-20T02:55:11;36.40;;;18.23;;
49384;SDS011;36795;45.028;38.968;2022-11-20T02:57:57;35.85;;;18.45;;
49384;SDS011;36795;45.028;38.968;2022-11-20T03:00:46;36.72;;;17.65;;
49384;SDS011;36795;45.028;38.968;2022-11-20T03:03:31;35.10;;;17.15;;
49384;SDS011;36795;45.028;38.968;2022-11-20T03:06:18;37.60;;;17.33;;
49384;SDS011;36795;45.028;38.968;2022-11-20T03:09:04;37.33;;;17.35;;
49384;SDS011;36795;45.028;38.968;2022-11-20T03:11:50;36.83;;;17.65;;
49384;SDS011;36795;45.028;38.968;2022-11-20T03:14:36;34.90;;;17.98;;
49384;SDS011;36795;45.028;38.968;2022-11-20T03:17:23;32.45;;;15.50;;
49384;SDS011;36795;45.028;38.968;2022-11-20T03:20:08;33.92;;;15.68;;
49384;SDS011;36795;45.028;38.968;2022-11-20T03:22:55;36.05;;;17.00;;
49384;SDS011;36795;45.028;38.968;2022-11-20T03:25:40;33.13;;;16.08;;
49384;SDS011;36795;45.028;38.968;2022-11-20T03:28:27;36.65;;;16.08;;
49384;SDS011;36795;45.028;38.968;2022-11-20T03:31:13;35.67;;;17.73;;
49384;SDS011;36795;45.028;38.968;2022-11-20T03:34:01;35.22;;;17.33;;
49384;SDS011;36795;45.028;38.968;2022-11-20T03:36:48;34.55;;;15.40;;
49384;SDS011;36795;45.028;38.968;2022-11-20T03:39:34;35.05;;;15.80;;
49384;SDS011;36795;45.028;38.968;2022-11-20T03:42:19;32.25;;;15.77;;
49384;SDS011;36795;45.028;38.968;2022-11-20T03:45:24;37.13;;;16.42;;
49384;SDS011;36795;45.028;38.968;2022-11-20T03:48:10;35.35;;;15.93;;
49384;SDS011;36795;45.028;38.968;2022-11-20T03:51:10;32.58;;;16.58;;
49384;SDS011;36795;45.028;38.968;2022-11-20T03:53:59;31.60;;;16.17;;
49384;SDS011;36795;45.028;38.968;2022-11-20T03:56:47;35.17;;;16.12;;
49384;SDS011;36795;45.028;38.968;2022-11-20T03:59:32;35.70;;;16.48;;
49384;SDS011;36795;45.028;38.968;2022-11-20T04:02:19;36.13;;;16.12;;
49384;SDS011;36795;45.028;38.968;2022-11-20T04:05:05;33.15;;;16.40;;
49384;SDS011;36795;45.028;38.968;2022-11-20T04:07:51;35.45;;;16.60;;
49384;SDS011;36795;45.028;38.968;2022-11-20T04:10:37;34.40;;;18.25;;
49384;SDS011;36795;45.028;38.968;2022-11-20T04:13:23;35.35;;;17.60;;
49384;SDS011;36795;45.028;38.968;2022-11-20T04:16:09;41.13;;;20.50;;
49384;SDS011;36795;45.028;38.968;2022-11-20T04:18:56;40.35;;;20.92;;
49384;SDS011;36795;45.028;38.968;2022-11-20T04:21:45;41.03;;;21.27;;
49384;SDS011;36795;45.028;38.968;2022-11-20T04:24:31;42.72;;;23.02;;
49384;SDS011;36795;45.028;38.968;2022-11-20T04:27:17;40.42;;;21.90;;
49384;SDS011;36795;45.028;38.968;2022-11-20T04:30:04;40.92;;;22.33;;
49384;SDS011;36795;45.028;38.968;2022-11-20T04:32:51;38.50;;;20.23;;
49384;SDS011;36795;45.028;38.968;2022-11-20T04:35:37;39.08;;;20.90;;
49384;SDS011;36795;45.028;38.968;2022-11-20T04:38:24;41.30;;;22.08;;
49384;SDS011;36795;45.028;38.968;2022-11-20T04:41:16;44.80;;;21.23;;
49384;SDS011;36795;45.028;38.968;2022-11-20T04:44:05;41.90;;;21.62;;
49384;SDS011;36795;45.028;38.968;2022-11-20T04:46:51;39.33;;;21.25;;
49384;SDS011;36795;45.028;38.968;2022-11-20T04:49:37;41.15;;;20.98;;
49384;SDS011;36795;45.028;38.968;2022-11-20T04:52:23;42.25;;;21.37;;
49384;SDS011;36795;45.028;38.968;2022-11-20T04:55:09;39.60;;;22.15;;
49384;SDS011;36795;45.028;38.968;2022-11-20T04:57:55;41.55;;;22.27;;
49384;SDS011;36795;45.028;38.968;2022-11-20T05:00:41;45.53;;;22.60;;
49384;SDS011;36795;45.028;38.968;2022-11-20T05:03:27;41.17;;;21.87;;
49384;SDS011;36795;45.028;38.968;2022-11-20T05:06:14;44.15;;;23.50;;
49384;SDS011;36795;45.028;38.968;2022-11-20T05:09:02;40.80;;;21.52;;
49384;SDS011;36795;45.028;38.968;2022-11-20T05:11:48;40.05;;;22.73;;
49384;SDS011;36795;45.028;38.968;2022-11-20T05:14:34;41.30;;;22.33;;
49384;SDS011;36795;45.028;38.968;2022-11-20T05:17:20;45.88;;;21.95;;
49384;SDS011;36795;45.028;38.968;2022-11-20T05:20:06;38.05;;;20.83;;
49384;SDS011;36795;45.028;38.968;2022-11-20T05:22:56;43.08;;;22.10;;
49384;SDS011;36795;45.028;38.968;2022-11-20T05:25:42;35.25;;;18.73;;
49384;SDS011;36795;45.028;38.968;2022-11-20T05:28:30;37.58;;;20.17;;
49384;SDS011;36795;45.028;38.968;2022-11-20T05:31:21;35.17;;;18.42;;
49384;SDS011;36795;45.028;38.968;2022-11-20T05:34:08;38.92;;;19.55;;
49384;SDS011;36795;45.028;38.968;2022-11-20T05:36:54;42.47;;;19.48;;
49384;SDS011;36795;45.028;38.968;2022-11-20T05:39:40;44.25;;;20.62;;
49384;SDS011;36795;45.028;38.968;2022-11-20T05:42:26;44.05;;;19.85;;
49384;SDS011;36795;45.028;38.968;2022-11-20T05:45:16;41.40;;;18.33;;
49384;SDS011;36795;45.028;38.968;2022-11-20T05:48:02;39.17;;;18.45;;
49384;SDS011;36795;45.028;38.968;2022-11-20T05:50:48;37.35;;;16.85;;
49384;SDS011;36795;45.028;38.968;2022-11-20T05:53:34;34.33;;;16.15;;
49384;SDS011;36795;45.028;38.968;2022-11-20T05:56:21;35.17;;;17.33;;
49384;SDS011;36795;45.028;38.968;2022-11-20T05:59:07;34.80;;;16.45;;
49384;SDS011;36795;45.028;38.968;2022-11-20T06:01:53;38.85;;;17.02;;
49384;SDS011;36795;45.028;38.968;2022-11-20T06:04:40;35.95;;;17.90;;
49384;SDS011;36795;45.028;38.968;2022-11-20T06:07:25;33.45;;;17.23;;
49384;SDS011;36795;45.028;38.968;2022-11-20T06:10:12;34.65;;;16.42;;
49384;SDS011;36795;45.028;38.968;2022-11-20T06:12:57;36.20;;;16.75;;
49384;SDS011;36795;45.028;38.968;2022-11-20T06:15:48;32.13;;;16.15;;
49384;SDS011;36795;45.028;38.968;2022-11-20T06:18:35;31.33;;;15.43;;
49384;SDS011;36795;45.028;38.968;2022-11-20T06:21:22;38.80;;;18.98;;
49384;SDS011;36795;45.028;38.968;2022-11-20T06:24:11;34.00;;;17.10;;
49384;SDS011;36795;45.028;38.968;2022-11-20T06:26:57;31.58;;;14.30;;
49384;SDS011;36795;45.028;38.968;2022-11-20T06:29:43;33.25;;;15.18;;
49384;SDS011;36795;45.028;38.968;2022-11-20T06:32:30;30.83;;;13.85;;
49384;SDS011;36795;45.028;38.968;2022-11-20T06:35:16;32.60;;;14.05;;
49384;SDS011;36795;45.028;38.968;2022-11-20T06:38:02;31.83;;;14.40;;
49384;SDS011;36795;45.028;38.968;2022-11-20T06:40:48;32.17;;;15.55;;
49384;SDS011;36795;45.028;38.968;2022-11-20T06:43:34;29.33;;;14.55;;
49384;SDS011;36795;45.028;38.968;2022-11-20T06:46:20;33.35;;;15.55;;
49384;SDS011;36795;45.028;38.968;2022-11-20T06:49:07;33.83;;;15.55;;
49384;SDS011;36795;45.028;38.968;2022-11-20T06:51:53;33.95;;;15.88;;
49384;SDS011;36795;45.028;38.968;2022-11-20T06:54:39;34.40;;;17.20;;
49384;SDS011;36795;45.028;38.968;2022-11-20T06:57:25;30.70;;;14.93;;
49384;SDS011;36795;45.028;38.968;2022-11-20T07:00:11;35.08;;;16.75;;
49384;SDS011;36795;45.028;38.968;2022-11-20T07:02:57;31.60;;;14.35;;
49384;SDS011;36795;45.028;38.968;2022-11-20T07:05:43;30.58;;;13.13;;
49384;SDS011;36795;45.028;38.968;2022-11-20T07:08:30;28.30;;;14.02;;
49384;SDS011;36795;45.028;38.968;2022-11-20T07:11:17;30.02;;;14.18;;
49384;SDS011;36795;45.028;38.968;2022-11-20T07:14:03;30.30;;;14.85;;
49384;SDS011;36795;45.028;38.968;2022-11-20T07:16:49;33.92;;;15.65;;
49384;SDS011;36795;45.028;38.968;2022-11-20T07:19:35;34.28;;;17.02;;
49384;SDS011;36795;45.028;38.968;2022-11-20T07:22:21;34.95;;;15.70;;
49384;SDS011;36795;45.028;38.968;2022-11-20T07:25:07;31.90;;;15.40;;
49384;SDS011;36795;45.028;38.968;2022-11-20T07:27:58;33.53;;;15.75;;
49384;SDS011;36795;45.028;38.968;2022-11-20T07:30:49;34.88;;;16.10;;
49384;SDS011;36795;45.028;38.968;2022-11-20T07:33:38;33.25;;;15.15;;
49384;SDS011;36795;45.028;38.968;2022-11-20T07:36:24;39.53;;;19.20;;
49384;SDS011;36795;45.028;38.968;2022-11-20T07:39:10;31.67;;;15.82;;
49384;SDS011;36795;45.028;38.968;2022-11-20T07:41:56;32.97;;;15.48;;
49384;SDS011;36795;45.028;38.968;2022-11-20T07:44:42;34.70;;;16.27;;
49384;SDS011;36795;45.028;38.968;2022-11-20T07:47:28;31.62;;;16.12;;
49384;SDS011;36795;45.028;38.968;2022-11-20T07:50:20;32.72;;;16.70;;
49384;SDS011;36795;45.028;38.968;2022-11-20T07:53:06;33.15;;;16.58;;
49384;SDS011;36795;45.028;38.968;2022-11-20T07:55:53;34.60;;;17.30;;
49384;SDS011;36795;45.028;38.968;2022-11-20T07:58:38;35.35;;;15.82;;
49384;SDS011;36795;45.028;38.968;2022-11-20T08:01:25;32.47;;;16.05;;
49384;SDS011;36795;45.028;38.968;2022-11-20T08:04:11;36.65;;;17.02;;
49384;SDS011;36795;45.028;38.968;2022-11-20T08:06:57;34.00;;;15.98;;
49384;SDS011;36795;45.028;38.968;2022-11-20T08:09:44;32.53;;;16.70;;
49384;SDS011;36795;45.028;38.968;2022-11-20T08:12:30;32.03;;;16.00;;
49384;SDS011;36795;45.028;38.968;2022-11-20T08:15:35;31.80;;;14.57;;
49384;SDS011;36795;45.028;38.968;2022-11-20T08:18:22;33.03;;;16.35;;
49384;SDS011;36795;45.028;38.968;2022-11-20T08:21:08;28.83;;;14.82;;
49384;SDS011;36795;45.028;38.968;2022-11-20T08:23:54;36.92;;;15.43;;
49384;SDS011;36795;45.028;38.968;2022-11-20T08:26:40;32.90;;;14.77;;
49384;SDS011;36795;45.028;38.968;2022-11-20T08:29:26;35.78;;;16.50;;
49384;SDS011;36795;45.028;38.968;2022-11-20T08:32:13;33.92;;;16.08;;
49384;SDS011;36795;45.028;38.968;2022-11-20T08:34:58;36.42;;;15.75;;
49384;SDS011;36795;45.028;38.968;2022-11-20T08:37:48;33.33;;;16.30;;
49384;SDS011;36795;45.028;38.968;2022-11-20T08:40:34;36.30;;;16.23;;
49384;SDS011;36795;45.028;38.968;2022-11-20T08:43:20;37.72;;;16.37;;
49384;SDS011;36795;45.028;38.968;2022-11-20T08:46:06;39.13;;;15.82;;
49384;SDS011;36795;45.028;38.968;2022-11-20T08:48:52;32.67;;;16.12;;
49384;SDS011;36795;45.028;38.968;2022-11-20T08:51:39;33.83;;;15.73;;
49384;SDS011;36795;45.028;38.968;2022-11-20T08:54:25;34.30;;;16.15;;
49384;SDS011;36795;45.028;38.968;2022-11-20T08:57:11;35.40;;;15.82;;
49384;SDS011;36795;45.028;38.968;2022-11-20T08:59:57;35.13;;;17.40;;
49384;SDS011;36795;45.028;38.968;2022-11-20T09:02:42;33.97;;;16.35;;
49384;SDS011;36795;45.028;38.968;2022-11-20T09:05:29;32.55;;;17.62;;
49384;SDS011;36795;45.028;38.968;2022-11-20T09:08:15;31.98;;;15.82;;
49384;SDS011;36795;45.028;38.968;2022-11-20T09:11:01;31.77;;;16.65;;
49384;SDS011;36795;45.028;38.968;2022-11-20T09:13:48;31.90;;;16.62;;
49384;SDS011;36795;45.028;38.968;2022-11-20T09:16:34;35.80;;;16.17;;
49384;SDS011;36795;45.028;38.968;2022-11-20T09:19:20;31.95;;;15.85;;
49384;SDS011;36795;45.028;38.968;2022-11-20T09:22:07;32.92;;;15.80;;
49384;SDS011;36795;45.028;38.968;2022-11-20T09:24:52;33.58;;;16.10;;
49384;SDS011;36795;45.028;38.968;2022-11-20T09:27:39;35.08;;;16.87;;
49384;SDS011;36795;45.028;38.968;2022-11-20T09:30:26;32.95;;;15.45;;
49384;SDS011;36795;45.028;38.968;2022-11-20T09:33:12;31.33;;;14.73;;
49384;SDS011;36795;45.028;38.968;2022-11-20T09:35:58;32.95;;;15.95;;
49384;SDS011;36795;45.028;38.968;2022-11-20T09:38:45;33.22;;;15.40;;
49384;SDS011;36795;45.028;38.968;2022-11-20T09:44:38;33.45;;;14.52;;
49384;SDS011;36795;45.028;38.968;2022-11-20T09:51:28;35.13;;;15.35;;
49384;SDS011;36795;45.028;38.968;2022-11-20T09:54:33;33.63;;;15.55;;
49384;SDS011;36795;45.028;38.968;2022-11-20T09:57:25;31.25;;;14.87;;
49384;SDS011;36795;45.028;38.968;2022-11-20T10:00:23;33.97;;;15.25;;
49384;SDS011;36795;45.028;38.968;2022-11-20T10:03:20;32.03;;;15.30;;
49384;SDS011;36795;45.028;38.968;2022-11-20T10:06:23;31.25;;;15.07;;
49384;SDS011;36795;45.028;38.968;2022-11-20T10:09:27;35.72;;;14.87;;
49384;SDS011;36795;45.028;38.968;2022-11-20T10:12:23;34.95;;;16.48;;
49384;SDS011;36795;45.028;38.968;2022-11-20T10:15:33;33.92;;;15.80;;
49384;SDS011;36795;45.028;38.968;2022-11-20T10:28:06;27.70;;;11.75;;
49384;SDS011;36795;45.028;38.968;2022-11-20T10:31:12;32.00;;;12.18;;
49384;SDS011;36795;45.028;38.968;2022-11-20T10:34:28;27.15;;;11.12;;
49384;SDS011;36795;45.028;38.968;2022-11-20T10:37:27;27.50;;;12.43;;
49384;SDS011;36795;45.028;38.968;2022-11-20T10:40:27;26.80;;;11.27;;
49384;SDS011;36795;45.028;38.968;2022-11-20T10:43:32;29.52;;;12.43;;
49384;SDS011;36795;45.028;38.968;2022-11-20T10:46:20;33.47;;;11.70;;
49384;SDS011;36795;45.028;38.968;2022-11-20T10:49:15;29.15;;;12.30;;
49384;SDS011;36795;45.028;38.968;2022-11-20T10:54:59;30.70;;;11.85;;
49384;SDS011;36795;45.028;38.968;2022-11-20T10:58:08;32.08;;;11.95;;
49384;SDS011;36795;45.028;38.968;2022-11-20T11:01:03;27.58;;;11.95;;
49384;SDS011;36795;45.028;38.968;2022-11-20T11:04:22;31.92;;;11.88;;
49384;SDS011;36795;45.028;38.968;2022-11-20T11:07:25;34.23;;;11.87;;
49384;SDS011;36795;45.028;38.968;2022-11-20T11:10:22;26.62;;;12.13;;
49384;SDS011;36795;45.028;38.968;2022-11-20T11:13:24;27.65;;;11.68;;
49384;SDS011;36795;45.028;38.968;2022-11-20T11:16:25;28.08;;;12.15;;
49384;SDS011;36795;45.028;38.968;2022-11-20T11:19:12;29.77;;;11.80;;
49384;SDS011;36795;45.028;38.968;2022-11-20T11:21:59;27.02;;;12.15;;
49384;SDS011;36795;45.028;38.968;2022-11-20T11:24:52;31.62;;;12.70;;
49384;SDS011;36795;45.028;38.968;2022-11-20T11:27:46;30.25;;;12.88;;
49384;SDS011;36795;45.028;38.968;2022-11-20T11:30:41;29.25;;;11.55;;
49384;SDS011;36795;45.028;38.968;2022-11-20T11:33:29;29.90;;;12.35;;
49384;SDS011;36795;45.028;38.968;2022-11-20T11:36:20;28.83;;;13.18;;
49384;SDS011;36795;45.028;38.968;2022-11-20T11:39:19;29.02;;;12.13;;
49384;SDS011;36795;45.028;38.968;2022-11-20T11:42:07;31.30;;;12.73;;
49384;SDS011;36795;45.028;38.968;2022-11-20T11:45:01;31.23;;;13.05;;
49384;SDS011;36795;45.028;38.968;2022-11-20T11:47:50;29.83;;;12.43;;
49384;SDS011;36795;45.028;38.968;2022-11-20T11:50:37;33.72;;;13.02;;
49384;SDS011;36795;45.028;38.968;2022-11-20T11:53:35;32.05;;;13.45;;
49384;SDS011;36795;45.028;38.968;2022-11-20T11:56:28;32.30;;;12.52;;
49384;SDS011;36795;45.028;38.968;2022-11-20T11:59:18;27.42;;;13.13;;
49384;SDS011;36795;45.028;38.968;2022-11-20T12:02:23;30.48;;;13.23;;
49384;SDS011;36795;45.028;38.968;2022-11-20T12:05:28;37.20;;;14.43;;
49384;SDS011;36795;45.028;38.968;2022-11-20T12:08:23;27.42;;;12.85;;
49384;SDS011;36795;45.028;38.968;2022-11-20T12:11:23;29.80;;;13.15;;
49384;SDS011;36795;45.028;38.968;2022-11-20T12:14:27;33.38;;;14.18;;
49384;SDS011;36795;45.028;38.968;2022-11-20T12:17:19;31.37;;;14.60;;
49384;SDS011;36795;45.028;38.968;2022-11-20T12:20:10;33.28;;;15.13;;
49384;SDS011;36795;45.028;38.968;2022-11-20T12:23:22;33.67;;;13.82;;
49384;SDS011;36795;45.028;38.968;2022-11-20T12:26:14;32.90;;;14.40;;
49384;SDS011;36795;45.028;38.968;2022-11-20T12:29:18;38.35;;;15.15;;
49384;SDS011;36795;45.028;38.968;2022-11-20T12:35:06;37.30;;;16.52;;
49384;SDS011;36795;45.028;38.968;2022-11-20T12:41:31;39.83;;;16.55;;
49384;SDS011;36795;45.028;38.968;2022-11-20T12:45:02;38.17;;;19.20;;
49384;SDS011;36795;45.028;38.968;2022-11-20T12:57:58;40.50;;;19.87;;
49384;SDS011;36795;45.028;38.968;2022-11-20T13:07:32;46.10;;;20.12;;
49384;SDS011;36795;45.028;38.968;2022-11-20T13:16:10;43.75;;;20.52;;
49384;SDS011;36795;45.028;38.968;2022-11-20T13:19:13;39.08;;;18.25;;
49384;SDS011;36795;45.028;38.968;2022-11-20T13:22:01;36.60;;;13.85;;
49384;SDS011;36795;45.028;38.968;2022-11-20T13:24:50;35.13;;;14.63;;
49384;SDS011;36795;45.028;38.968;2022-11-20T13:27:46;33.78;;;14.52;;
49384;SDS011;36795;45.028;38.968;2022-11-20T13:30:33;37.78;;;15.70;;
49384;SDS011;36795;45.028;38.968;2022-11-20T13:33:27;34.72;;;14.87;;
49384;SDS011;36795;45.028;38.968;2022-11-20T13:36:20;36.80;;;15.50;;
49384;SDS011;36795;45.028;38.968;2022-11-20T13:39:08;40.20;;;17.15;;
49384;SDS011;36795;45.028;38.968;2022-11-20T13:41:55;38.20;;;17.17;;
49384;SDS011;36795;45.028;38.968;2022-11-20T13:44:47;37.47;;;15.60;;
49384;SDS011;36795;45.028;38.968;2022-11-20T13:47:36;40.40;;;16.25;;
49384;SDS011;36795;45.028;38.968;2022-11-20T13:50:30;55.72;;;19.40;;
49384;SDS011;36795;45.028;38.968;2022-11-20T13:56:53;42.17;;;19.92;;
49384;SDS011;36795;45.028;38.968;2022-11-20T14:03:08;30.35;;;12.57;;
49384;SDS011;36795;45.028;38.968;2022-11-20T14:06:01;35.28;;;13.88;;
49384;SDS011;36795;45.028;38.968;2022-11-20T14:08:49;23.75;;;7.90;;
49384;SDS011;36795;45.028;38.968;2022-11-20T14:11:35;29.58;;;9.95;;
49384;SDS011;36795;45.028;38.968;2022-11-20T14:14:32;28.15;;;9.50;;
49384;SDS011;36795;45.028;38.968;2022-11-20T14:17:20;25.70;;;8.75;;
49384;SDS011;36795;45.028;38.968;2022-11-20T14:20:15;26.45;;;11.45;;
49384;SDS011;36795;45.028;38.968;2022-11-20T14:23:03;26.37;;;10.25;;
49384;SDS011;36795;45.028;38.968;2022-11-20T14:25:50;34.17;;;11.05;;
49384;SDS011;36795;45.028;38.968;2022-11-20T14:28:37;41.75;;;11.77;;
49384;SDS011;36795;45.028;38.968;2022-11-20T14:31:26;32.67;;;13.62;;
49384;SDS011;36795;45.028;38.968;2022-11-20T14:34:14;32.95;;;13.98;;
49384;SDS011;36795;45.028;38.968;2022-11-20T14:37:05;31.33;;;12.00;;
49384;SDS011;36795;45.028;38.968;2022-11-20T14:39:55;36.65;;;13.10;;
49384;SDS011;36795;45.028;38.968;2022-11-20T14:42:44;32.08;;;12.48;;
49384;SDS011;36795;45.028;38.968;2022-11-20T14:45:30;26.90;;;10.63;;
49384;SDS011;36795;45.028;38.968;2022-11-20T14:48:16;24.52;;;8.90;;
49384;SDS011;36795;45.028;38.968;2022-11-20T14:51:02;26.15;;;9.73;;
49384;SDS011;36795;45.028;38.968;2022-11-20T14:53:48;30.75;;;9.75;;
49384;SDS011;36795;45.028;38.968;2022-11-20T14:56:34;27.15;;;8.05;;
49384;SDS011;36795;45.028;38.968;2022-11-20T14:59:25;19.83;;;6.53;;
49384;SDS011;36795;45.028;38.968;2022-11-20T15:02:12;21.30;;;6.12;;
49384;SDS011;36795;45.028;38.968;2022-11-20T15:05:00;21.20;;;6.35;;
49384;SDS011;36795;45.028;38.968;2022-11-20T15:08:03;21.10;;;6.22;;
49384;SDS011;36795;45.028;38.968;2022-11-20T15:10:52;21.87;;;6.22;;
49384;SDS011;36795;45.028;38.968;2022-11-20T15:13:38;22.48;;;6.25;;
49384;SDS011;36795;45.028;38.968;2022-11-20T15:16:25;18.45;;;5.40;;
49384;SDS011;36795;45.028;38.968;2022-11-20T15:19:16;17.65;;;5.25;;
49384;SDS011;36795;45.028;38.968;2022-11-20T15:22:12;19.02;;;5.75;;
49384;SDS011;36795;45.028;38.968;2022-11-20T15:24:58;20.70;;;5.90;;
49384;SDS011;36795;45.028;38.968;2022-11-20T15:27:45;22.17;;;5.82;;
49384;SDS011;36795;45.028;38.968;2022-11-20T15:30:36;20.52;;;5.53;;
49384;SDS011;36795;45.028;38.968;2022-11-20T15:33:22;21.25;;;6.40;;
49384;SDS011;36795;45.028;38.968;2022-11-20T15:36:07;23.10;;;6.10;;
49384;SDS011;36795;45.028;38.968;2022-11-20T15:38:54;22.90;;;6.60;;
49384;SDS011;36795;45.028;38.968;2022-11-20T15:41:40;20.25;;;6.00;;
49384;SDS011;36795;45.028;38.968;2022-11-20T15:44:26;19.37;;;6.47;;
49384;SDS011;36795;45.028;38.968;2022-11-20T15:47:12;17.48;;;6.20;;
49384;SDS011;36795;45.028;38.968;2022-11-20T15:49:58;19.27;;;6.10;;
49384;SDS011;36795;45.028;38.968;2022-11-20T15:52:44;18.83;;;5.87;;
49384;SDS011;36795;45.028;38.968;2022-11-20T15:55:30;18.58;;;5.75;;
49384;SDS011;36795;45.028;38.968;2022-11-20T15:58:17;21.55;;;6.68;;
49384;SDS011;36795;45.028;38.968;2022-11-20T16:01:04;16.02;;;5.12;;
49384;SDS011;36795;45.028;38.968;2022-11-20T16:03:50;21.37;;;5.78;;
49384;SDS011;36795;45.028;38.968;2022-11-20T16:06:36;22.20;;;7.05;;
49384;SDS011;36795;45.028;38.968;2022-11-20T16:09:22;19.08;;;5.75;;
49384;SDS011;36795;45.028;38.968;2022-11-20T16:12:08;20.30;;;5.50;;
49384;SDS011;36795;45.028;38.968;2022-11-20T16:15:15;21.60;;;6.53;;
49384;SDS011;36795;45.028;38.968;2022-11-20T16:18:20;19.67;;;6.45;;
49384;SDS011;36795;45.028;38.968;2022-11-20T16:21:10;19.15;;;6.07;;
49384;SDS011;36795;45.028;38.968;2022-11-20T16:24:02;21.55;;;6.07;;
49384;SDS011;36795;45.028;38.968;2022-11-20T16:26:50;18.17;;;5.53;;
49384;SDS011;36795;45.028;38.968;2022-11-20T16:29:38;19.50;;;5.50;;
49384;SDS011;36795;45.028;38.968;2022-11-20T16:32:24;20.20;;;6.47;;
49384;SDS011;36795;45.028;38.968;2022-11-20T16:35:10;20.08;;;5.68;;
49384;SDS011;36795;45.028;38.968;2022-11-20T16:37:56;23.95;;;6.32;;
49384;SDS011;36795;45.028;38.968;2022-11-20T16:40:42;20.55;;;5.65;;
49384;SDS011;36795;45.028;38.968;2022-11-20T16:43:28;21.92;;;6.57;;
49384;SDS011;36795;45.028;38.968;2022-11-20T16:46:15;22.85;;;5.82;;
49384;SDS011;36795;45.028;38.968;2022-11-20T16:49:06;23.60;;;6.10;;
49384;SDS011;36795;45.028;38.968;2022-11-20T16:51:57;27.25;;;6.80;;
49384;SDS011;36795;45.028;38.968;2022-11-20T16:54:43;27.00;;;9.20;;
49384;SDS011;36795;45.028;38.968;2022-11-20T16:57:29;32.13;;;8.43;;
49384;SDS011;36795;45.028;38.968;2022-11-20T17:00:17;27.60;;;7.68;;
49384;SDS011;36795;45.028;38.968;2022-11-20T17:03:04;26.30;;;8.90;;
49384;SDS011;36795;45.028;38.968;2022-11-20T17:05:51;27.02;;;9.02;;
49384;SDS011;36795;45.028;38.968;2022-11-20T17:08:36;33.10;;;7.47;;
49384;SDS011;36795;45.028;38.968;2022-11-20T17:11:23;28.05;;;9.15;;
49384;SDS011;36795;45.028;38.968;2022-11-20T17:14:10;27.48;;;7.90;;
49384;SDS011;36795;45.028;38.968;2022-11-20T17:16:57;23.65;;;7.93;;
49384;SDS011;36795;45.028;38.968;2022-11-20T17:19:43;24.90;;;5.95;;